sensor_id;sensor_type;location;lat;lon;timestamp;pressure;altitude;pressure_sealevel;temperature;humidity
21826;BME280;11075;47.944;11.776;2023-11-19T00:00:09;94882.03;;;-5.98;88.35
21826;BME280;11075;47.944;11.776;2023-11-19T00:02:41;94885.66;;;-5.29;83.87
21826;BME280;11075;47.944;11.776;2023-11-19T00:05:09;94890.94;;;-5.99;89.00
21826;BME280;11075;47.944;11.776;2023-11-19T00:07:40;94882.91;;;-5.34;85.07
21826;BME280;11075;47.944;11.776;2023-11-19T00:10:16;94874.97;;;-5.63;86.57
21826;BME280;11075;47.944;11.776;2023-11-19T00:12:48;94860.13;;;-6.15;91.45
21826;BME280;11075;47.944;11.776;2023-11-19T00:15:16;94861.84;;;-6.21;92.47
21826;BME280;11075;47.944;11.776;2023-11-19T00:17:46;94860.47;;;-6.00;90.25
21826;BME280;11075;47.944;11.776;2023-11-19T00:20:15;94861.22;;;-5.41;86.88
21826;BME280;11075;47.944;11.776;2023-11-19T00:22:43;94851.22;;;-5.56;87.58
21826;BME280;11075;47.944;11.776;2023-11-19T00:25:13;94844.81;;;-5.48;87.57
21826;BME280;11075;47.944;11.776;2023-11-19T00:27:40;94841.91;;;-5.35;87.16
21826;BME280;11075;47.944;11.776;2023-11-19T00:30:07;94843.06;;;-5.03;83.67
21826;BME280;11075;47.944;11.776;2023-11-19T00:32:35;94835.81;;;-5.24;83.55
21826;BME280;11075;47.944;11.776;2023-11-19T00:35:02;94834.56;;;-5.62;88.24
21826;BME280;11075;47.944;11.776;2023-11-19T00:37:30;94828.34;;;-5.44;86.78
21826;BME280;11075;47.944;11.776;2023-11-19T00:39:56;94830.16;;;-5.33;86.26
21826;BME280;11075;47.944;11.776;2023-11-19T00:42:24;94820.16;;;-5.71;87.98
21826;BME280;11075;47.944;11.776;2023-11-19T00:44:51;94818.38;;;-6.05;92.53
21826;BME280;11075;47.944;11.776;2023-11-19T00:47:19;94807.75;;;-5.64;90.54
21826;BME280;11075;47.944;11.776;2023-11-19T00:49:48;94802.81;;;-5.60;88.54
21826;BME280;11075;47.944;11.776;2023-11-19T00:52:17;94807.03;;;-5.59;89.51
21826;BME280;11075;47.944;11.776;2023-11-19T00:54:44;94804.44;;;-5.94;91.11
21826;BME280;11075;47.944;11.776;2023-11-19T00:57:11;94799.69;;;-5.45;88.45
21826;BME280;11075;47.944;11.776;2023-11-19T00:59:37;94798.09;;;-5.18;86.09
21826;BME280;11075;47.944;11.776;2023-11-19T01:02:04;94793.47;;;-4.82;82.02
21826;BME280;11075;47.944;11.776;2023-11-19T01:04:34;94798.63;;;-5.04;83.87
21826;BME280;11075;47.944;11.776;2023-11-19T01:07:02;94805.28;;;-4.35;78.02
21826;BME280;11075;47.944;11.776;2023-11-19T01:09:33;94806.22;;;-4.74;82.41
21826;BME280;11075;47.944;11.776;2023-11-19T01:12:03;94795.72;;;-4.41;78.74
21826;BME280;11075;47.944;11.776;2023-11-19T01:14:30;94799.47;;;-4.37;77.17
21826;BME280;11075;47.944;11.776;2023-11-19T01:16:57;94805.13;;;-3.73;73.78
21826;BME280;11075;47.944;11.776;2023-11-19T01:19:24;94799.84;;;-4.78;80.11
21826;BME280;11075;47.944;11.776;2023-11-19T01:21:51;94795.25;;;-4.38;78.81
21826;BME280;11075;47.944;11.776;2023-11-19T01:24:19;94791.66;;;-4.32;79.27
21826;BME280;11075;47.944;11.776;2023-11-19T01:26:46;94795.84;;;-4.14;78.05
21826;BME280;11075;47.944;11.776;2023-11-19T01:29:16;94797.47;;;-4.80;81.67
21826;BME280;11075;47.944;11.776;2023-11-19T01:31:43;94800.28;;;-4.53;80.53
21826;BME280;11075;47.944;11.776;2023-11-19T01:34:12;94795.06;;;-4.14;78.08
21826;BME280;11075;47.944;11.776;2023-11-19T01:36:39;94788.22;;;-4.32;79.32
21826;BME280;11075;47.944;11.776;2023-11-19T01:39:06;94787.03;;;-4.75;83.98
21826;BME280;11075;47.944;11.776;2023-11-19T01:41:37;94783.03;;;-4.94;85.97
21826;BME280;11075;47.944;11.776;2023-11-19T01:44:06;94777.41;;;-4.69;84.01
21826;BME280;11075;47.944;11.776;2023-11-19T01:46:34;94771.72;;;-4.27;81.08
21826;BME280;11075;47.944;11.776;2023-11-19T01:49:02;94776.97;;;-4.27;80.42
21826;BME280;11075;47.944;11.776;2023-11-19T01:51:29;94767.72;;;-4.13;80.26
21826;BME280;11075;47.944;11.776;2023-11-19T01:53:57;94769.50;;;-4.36;81.88
21826;BME280;11075;47.944;11.776;2023-11-19T01:56:26;94762.47;;;-3.91;79.01
21826;BME280;11075;47.944;11.776;2023-11-19T01:58:54;94756.41;;;-4.31;81.71
21826;BME280;11075;47.944;11.776;2023-11-19T02:01:23;94755.63;;;-4.81;84.84
21826;BME280;11075;47.944;11.776;2023-11-19T02:03:51;94749.56;;;-4.32;82.40
21826;BME280;11075;47.944;11.776;2023-11-19T02:06:19;94757.69;;;-5.00;89.46
21826;BME280;11075;47.944;11.776;2023-11-19T02:08:46;94750.06;;;-4.68;86.96
21826;BME280;11075;47.944;11.776;2023-11-19T02:11:13;94747.13;;;-4.16;82.91
21826;BME280;11075;47.944;11.776;2023-11-19T02:13:40;94754.81;;;-4.99;89.58
21826;BME280;11075;47.944;11.776;2023-11-19T02:16:08;94743.56;;;-4.27;83.88
21826;BME280;11075;47.944;11.776;2023-11-19T02:18:36;94754.34;;;-4.45;85.49
21826;BME280;11075;47.944;11.776;2023-11-19T02:21:03;94756.97;;;-4.29;85.26
21826;BME280;11075;47.944;11.776;2023-11-19T02:23:32;94747.28;;;-4.06;81.83
21826;BME280;11075;47.944;11.776;2023-11-19T02:28:36;94718.00;;;-4.10;83.26
21826;BME280;11075;47.944;11.776;2023-11-19T02:31:04;94705.41;;;-4.08;83.77
21826;BME280;11075;47.944;11.776;2023-11-19T02:33:37;94709.16;;;-4.42;89.38
21826;BME280;11075;47.944;11.776;2023-11-19T02:36:05;94705.28;;;-4.73;94.06
21826;BME280;11075;47.944;11.776;2023-11-19T02:38:34;94697.44;;;-4.13;88.71
21826;BME280;11075;47.944;11.776;2023-11-19T02:41:06;94685.69;;;-4.05;88.90
21826;BME280;11075;47.944;11.776;2023-11-19T02:43:34;94682.59;;;-3.80;85.53
21826;BME280;11075;47.944;11.776;2023-11-19T02:46:02;94677.38;;;-3.97;88.16
21826;BME280;11075;47.944;11.776;2023-11-19T02:48:36;94676.19;;;-4.28;90.88
21826;BME280;11075;47.944;11.776;2023-11-19T02:51:06;94664.25;;;-3.92;88.92
21826;BME280;11075;47.944;11.776;2023-11-19T02:53:36;94666.81;;;-4.41;89.33
21826;BME280;11075;47.944;11.776;2023-11-19T02:56:05;94660.16;;;-3.83;89.57
21826;BME280;11075;47.944;11.776;2023-11-19T02:58:46;94659.56;;;-3.90;89.23
21826;BME280;11075;47.944;11.776;2023-11-19T03:01:14;94652.69;;;-4.35;91.11
21826;BME280;11075;47.944;11.776;2023-11-19T03:03:50;94648.09;;;-4.01;91.81
21826;BME280;11075;47.944;11.776;2023-11-19T03:06:24;94640.75;;;-3.99;90.45
21826;BME280;11075;47.944;11.776;2023-11-19T03:08:51;94638.44;;;-3.73;91.00
21826;BME280;11075;47.944;11.776;2023-11-19T03:11:18;94631.91;;;-3.39;86.61
21826;BME280;11075;47.944;11.776;2023-11-19T03:13:45;94636.06;;;-4.18;92.04
21826;BME280;11075;47.944;11.776;2023-11-19T03:16:13;94627.09;;;-3.47;89.57
21826;BME280;11075;47.944;11.776;2023-11-19T03:18:40;94618.56;;;-3.27;86.53
21826;BME280;11075;47.944;11.776;2023-11-19T03:21:07;94619.38;;;-3.26;82.96
21826;BME280;11075;47.944;11.776;2023-11-19T03:23:37;94620.31;;;-3.06;84.33
21826;BME280;11075;47.944;11.776;2023-11-19T03:26:04;94617.34;;;-3.14;84.21
21826;BME280;11075;47.944;11.776;2023-11-19T03:28:32;94612.91;;;-3.09;86.84
21826;BME280;11075;47.944;11.776;2023-11-19T03:30:59;94619.81;;;-3.35;85.33
21826;BME280;11075;47.944;11.776;2023-11-19T03:33:26;94617.03;;;-2.86;83.07
21826;BME280;11075;47.944;11.776;2023-11-19T03:35:56;94619.16;;;-3.52;87.04
21826;BME280;11075;47.944;11.776;2023-11-19T03:38:24;94616.00;;;-3.17;85.39
21826;BME280;11075;47.944;11.776;2023-11-19T03:40:51;94612.75;;;-3.29;86.73
21826;BME280;11075;47.944;11.776;2023-11-19T03:43:18;94606.59;;;-3.93;92.59
21826;BME280;11075;47.944;11.776;2023-11-19T03:45:48;94616.22;;;-3.55;89.59
21826;BME280;11075;47.944;11.776;2023-11-19T03:48:15;94607.34;;;-3.12;86.25
21826;BME280;11075;47.944;11.776;2023-11-19T03:50:45;94605.28;;;-3.42;89.51
21826;BME280;11075;47.944;11.776;2023-11-19T03:53:12;94602.72;;;-3.86;95.20
21826;BME280;11075;47.944;11.776;2023-11-19T03:55:40;94599.13;;;-3.80;96.33
21826;BME280;11075;47.944;11.776;2023-11-19T03:58:07;94596.91;;;-2.97;98.91
21826;BME280;11075;47.944;11.776;2023-11-19T04:00:34;94587.63;;;-3.05;93.63
21826;BME280;11075;47.944;11.776;2023-11-19T04:03:00;94590.59;;;-2.49;96.44
21826;BME280;11075;47.944;11.776;2023-11-19T04:05:27;94594.13;;;-2.80;100.00
21826;BME280;11075;47.944;11.776;2023-11-19T04:07:54;94591.06;;;-2.62;97.86
21826;BME280;11075;47.944;11.776;2023-11-19T04:10:21;94602.16;;;-2.02;100.00
21826;BME280;11075;47.944;11.776;2023-11-19T04:12:49;94612.06;;;-1.32;96.63
21826;BME280;11075;47.944;11.776;2023-11-19T04:15:16;94611.00;;;-1.41;99.13
21826;BME280;11075;47.944;11.776;2023-11-19T04:17:43;94613.31;;;-1.80;100.00
21826;BME280;11075;47.944;11.776;2023-11-19T04:20:11;94611.50;;;-1.64;100.00
21826;BME280;11075;47.944;11.776;2023-11-19T04:22:41;94606.75;;;-1.57;100.00
21826;BME280;11075;47.944;11.776;2023-11-19T04:25:08;94612.06;;;-1.42;99.96
21826;BME280;11075;47.944;11.776;2023-11-19T04:27:36;94611.28;;;-1.27;100.00
21826;BME280;11075;47.944;11.776;2023-11-19T04:30:03;94611.53;;;-0.73;97.38
21826;BME280;11075;47.944;11.776;2023-11-19T04:32:31;94619.72;;;-1.56;100.00
21826;BME280;11075;47.944;11.776;2023-11-19T04:34:58;94623.44;;;-1.31;100.00
21826;BME280;11075;47.944;11.776;2023-11-19T04:37:25;94621.34;;;-0.84;100.00
21826;BME280;11075;47.944;11.776;2023-11-19T04:39:52;94628.94;;;-0.36;96.94
21826;BME280;11075;47.944;11.776;2023-11-19T04:42:19;94623.19;;;-1.04;100.00
21826;BME280;11075;47.944;11.776;2023-11-19T04:44:46;94626.34;;;-0.67;100.00
21826;BME280;11075;47.944;11.776;2023-11-19T04:47:13;94627.16;;;-0.77;100.00
21826;BME280;11075;47.944;11.776;2023-11-19T04:49:41;94625.00;;;-0.59;100.00
21826;BME280;11075;47.944;11.776;2023-11-19T04:52:11;94627.63;;;-0.44;100.00
21826;BME280;11075;47.944;11.776;2023-11-19T04:54:42;94627.66;;;-0.49;100.00
21826;BME280;11075;47.944;11.776;2023-11-19T04:57:10;94633.66;;;-0.23;100.00
21826;BME280;11075;47.944;11.776;2023-11-19T04:59:39;94632.63;;;-0.27;99.59
21826;BME280;11075;47.944;11.776;2023-11-19T05:02:06;94635.00;;;-0.31;99.51
21826;BME280;11075;47.944;11.776;2023-11-19T05:04:33;94628.47;;;-0.64;100.00
21826;BME280;11075;47.944;11.776;2023-11-19T05:07:00;94628.81;;;-0.01;97.64
21826;BME280;11075;47.944;11.776;2023-11-19T05:09:27;94646.88;;;-0.18;99.49
21826;BME280;11075;47.944;11.776;2023-11-19T05:11:54;94645.81;;;-0.17;100.00
21826;BME280;11075;47.944;11.776;2023-11-19T05:14:21;94650.56;;;-0.09;100.00
21826;BME280;11075;47.944;11.776;2023-11-19T05:16:48;94644.00;;;-0.27;100.00
21826;BME280;11075;47.944;11.776;2023-11-19T05:19:16;94642.84;;;-0.00;98.76
21826;BME280;11075;47.944;11.776;2023-11-19T05:21:43;94654.09;;;-0.39;100.00
21826;BME280;11075;47.944;11.776;2023-11-19T05:24:10;94646.28;;;0.05;100.00
21826;BME280;11075;47.944;11.776;2023-11-19T05:26:38;94645.63;;;-0.36;100.00
21826;BME280;11075;47.944;11.776;2023-11-19T05:29:05;94642.75;;;-0.60;100.00
21826;BME280;11075;47.944;11.776;2023-11-19T05:31:32;94649.25;;;-0.17;100.00
21826;BME280;11075;47.944;11.776;2023-11-19T05:34:03;94646.50;;;0.14;100.00
21826;BME280;11075;47.944;11.776;2023-11-19T05:36:30;94660.47;;;-0.45;100.00
21826;BME280;11075;47.944;11.776;2023-11-19T05:38:57;94654.41;;;-0.61;100.00
21826;BME280;11075;47.944;11.776;2023-11-19T05:41:24;94661.19;;;-0.19;100.00
21826;BME280;11075;47.944;11.776;2023-11-19T05:43:51;94669.09;;;-0.04;100.00
21826;BME280;11075;47.944;11.776;2023-11-19T05:46:18;94664.03;;;-0.00;99.47
21826;BME280;11075;47.944;11.776;2023-11-19T05:48:47;94661.84;;;0.22;100.00
21826;BME280;11075;47.944;11.776;2023-11-19T05:51:14;94649.91;;;0.25;97.92
21826;BME280;11075;47.944;11.776;2023-11-19T05:53:42;94660.97;;;0.42;100.00
21826;BME280;11075;47.944;11.776;2023-11-19T05:56:09;94659.63;;;0.44;99.86
21826;BME280;11075;47.944;11.776;2023-11-19T05:58:37;94664.97;;;0.29;99.65
21826;BME280;11075;47.944;11.776;2023-11-19T06:01:05;94669.06;;;0.01;100.00
21826;BME280;11075;47.944;11.776;2023-11-19T06:03:34;94668.94;;;0.42;97.39
21826;BME280;11075;47.944;11.776;2023-11-19T06:06:01;94674.09;;;0.67;97.95
21826;BME280;11075;47.944;11.776;2023-11-19T06:08:28;94675.09;;;0.76;97.25
21826;BME280;11075;47.944;11.776;2023-11-19T06:10:56;94671.16;;;0.09;100.00
21826;BME280;11075;47.944;11.776;2023-11-19T06:13:23;94673.25;;;0.17;100.00
21826;BME280;11075;47.944;11.776;2023-11-19T06:15:51;94674.13;;;-0.07;100.00
21826;BME280;11075;47.944;11.776;2023-11-19T06:18:18;94673.84;;;-0.01;100.00
21826;BME280;11075;47.944;11.776;2023-11-19T06:20:47;94677.91;;;0.51;98.45
21826;BME280;11075;47.944;11.776;2023-11-19T06:23:14;94692.31;;;0.19;100.00
21826;BME280;11075;47.944;11.776;2023-11-19T06:25:41;94698.09;;;0.32;100.00
21826;BME280;11075;47.944;11.776;2023-11-19T06:28:08;94697.25;;;0.41;100.00
21826;BME280;11075;47.944;11.776;2023-11-19T06:30:35;94686.88;;;0.55;99.44
21826;BME280;11075;47.944;11.776;2023-11-19T06:33:02;94679.13;;;0.69;96.98
21826;BME280;11075;47.944;11.776;2023-11-19T06:35:30;94692.59;;;0.18;100.00
21826;BME280;11075;47.944;11.776;2023-11-19T06:38:03;94689.41;;;0.16;100.00
21826;BME280;11075;47.944;11.776;2023-11-19T06:40:33;94695.53;;;0.76;97.33
21826;BME280;11075;47.944;11.776;2023-11-19T06:43:02;94695.03;;;-0.01;100.00
21826;BME280;11075;47.944;11.776;2023-11-19T06:45:35;94690.22;;;0.11;100.00
21826;BME280;11075;47.944;11.776;2023-11-19T06:48:04;94682.66;;;-0.26;100.00
21826;BME280;11075;47.944;11.776;2023-11-19T06:50:32;94680.75;;;-0.10;100.00
21826;BME280;11075;47.944;11.776;2023-11-19T06:52:59;94688.09;;;0.13;100.00
21826;BME280;11075;47.944;11.776;2023-11-19T06:55:26;94682.28;;;0.11;100.00
21826;BME280;11075;47.944;11.776;2023-11-19T06:57:54;94690.25;;;0.01;100.00
21826;BME280;11075;47.944;11.776;2023-11-19T07:00:20;94702.63;;;0.26;100.00
21826;BME280;11075;47.944;11.776;2023-11-19T07:02:47;94705.88;;;0.08;100.00
21826;BME280;11075;47.944;11.776;2023-11-19T07:05:15;94706.44;;;-0.00;100.00
21826;BME280;11075;47.944;11.776;2023-11-19T07:07:41;94711.59;;;0.40;100.00
21826;BME280;11075;47.944;11.776;2023-11-19T07:10:08;94708.75;;;0.21;100.00
21826;BME280;11075;47.944;11.776;2023-11-19T07:12:36;94708.69;;;0.42;100.00
21826;BME280;11075;47.944;11.776;2023-11-19T07:15:04;94712.97;;;0.28;100.00
21826;BME280;11075;47.944;11.776;2023-11-19T07:17:31;94719.38;;;0.11;100.00
21826;BME280;11075;47.944;11.776;2023-11-19T07:19:58;94723.25;;;0.49;100.00
21826;BME280;11075;47.944;11.776;2023-11-19T07:22:26;94724.84;;;0.40;100.00
21826;BME280;11075;47.944;11.776;2023-11-19T07:24:53;94731.41;;;0.58;99.82
21826;BME280;11075;47.944;11.776;2023-11-19T07:27:20;94739.47;;;0.28;100.00
21826;BME280;11075;47.944;11.776;2023-11-19T07:29:47;94735.00;;;0.18;100.00
21826;BME280;11075;47.944;11.776;2023-11-19T07:32:14;94731.78;;;0.26;100.00
21826;BME280;11075;47.944;11.776;2023-11-19T07:34:41;94733.94;;;0.83;97.08
21826;BME280;11075;47.944;11.776;2023-11-19T07:37:08;94741.16;;;0.73;98.19
21826;BME280;11075;47.944;11.776;2023-11-19T07:39:35;94739.88;;;0.65;99.13
21826;BME280;11075;47.944;11.776;2023-11-19T07:42:03;94745.25;;;0.45;100.00
21826;BME280;11075;47.944;11.776;2023-11-19T07:44:29;94742.53;;;0.60;99.91
21826;BME280;11075;47.944;11.776;2023-11-19T07:46:56;94741.06;;;0.29;100.00
21826;BME280;11075;47.944;11.776;2023-11-19T07:49:23;94742.88;;;0.48;100.00
21826;BME280;11075;47.944;11.776;2023-11-19T07:51:50;94734.34;;;1.06;96.07
21826;BME280;11075;47.944;11.776;2023-11-19T07:54:17;94735.56;;;0.79;98.72
21826;BME280;11075;47.944;11.776;2023-11-19T07:56:44;94741.38;;;0.12;100.00
21826;BME280;11075;47.944;11.776;2023-11-19T07:59:11;94742.94;;;0.23;100.00
21826;BME280;11075;47.944;11.776;2023-11-19T08:01:38;94747.31;;;0.58;98.66
21826;BME280;11075;47.944;11.776;2023-11-19T08:04:05;94736.72;;;0.58;97.78
21826;BME280;11075;47.944;11.776;2023-11-19T08:06:32;94741.28;;;0.42;99.81
21826;BME280;11075;47.944;11.776;2023-11-19T08:08:59;94750.22;;;0.67;97.47
21826;BME280;11075;47.944;11.776;2023-11-19T08:11:26;94735.34;;;0.66;98.90
21826;BME280;11075;47.944;11.776;2023-11-19T08:13:53;94745.59;;;1.27;93.30
21826;BME280;11075;47.944;11.776;2023-11-19T08:16:20;94757.81;;;0.83;97.30
21826;BME280;11075;47.944;11.776;2023-11-19T08:18:47;94756.56;;;0.66;97.27
21826;BME280;11075;47.944;11.776;2023-11-19T08:21:13;94751.69;;;0.88;95.59
21826;BME280;11075;47.944;11.776;2023-11-19T08:23:41;94741.50;;;1.05;93.00
21826;BME280;11075;47.944;11.776;2023-11-19T08:26:08;94746.66;;;0.86;97.28
21826;BME280;11075;47.944;11.776;2023-11-19T08:28:35;94750.84;;;1.71;87.88
21826;BME280;11075;47.944;11.776;2023-11-19T08:31:02;94747.44;;;0.87;95.79
21826;BME280;11075;47.944;11.776;2023-11-19T08:33:32;94756.03;;;0.69;96.60
21826;BME280;11075;47.944;11.776;2023-11-19T08:35:58;94755.00;;;0.60;98.52
21826;BME280;11075;47.944;11.776;2023-11-19T08:38:25;94759.50;;;0.64;100.00
21826;BME280;11075;47.944;11.776;2023-11-19T08:40:55;94752.25;;;1.24;95.31
21826;BME280;11075;47.944;11.776;2023-11-19T08:43:27;94757.06;;;0.73;95.62
21826;BME280;11075;47.944;11.776;2023-11-19T08:45:54;94764.03;;;1.08;95.74
21826;BME280;11075;47.944;11.776;2023-11-19T08:48:21;94763.75;;;0.60;99.12
21826;BME280;11075;47.944;11.776;2023-11-19T08:50:48;94755.84;;;1.04;95.69
21826;BME280;11075;47.944;11.776;2023-11-19T08:53:15;94761.78;;;1.30;95.40
21826;BME280;11075;47.944;11.776;2023-11-19T08:55:42;94747.97;;;1.28;94.98
21826;BME280;11075;47.944;11.776;2023-11-19T08:58:09;94755.31;;;1.41;93.42
21826;BME280;11075;47.944;11.776;2023-11-19T09:00:36;94744.88;;;1.16;93.63
21826;BME280;11075;47.944;11.776;2023-11-19T09:03:03;94750.53;;;1.77;90.80
21826;BME280;11075;47.944;11.776;2023-11-19T09:05:30;94746.34;;;1.71;89.20
21826;BME280;11075;47.944;11.776;2023-11-19T09:07:58;94750.81;;;1.03;92.60
21826;BME280;11075;47.944;11.776;2023-11-19T09:10:25;94748.59;;;1.15;94.69
21826;BME280;11075;47.944;11.776;2023-11-19T09:12:53;94743.03;;;0.72;99.04
21826;BME280;11075;47.944;11.776;2023-11-19T09:15:24;94745.66;;;1.56;91.44
21826;BME280;11075;47.944;11.776;2023-11-19T09:17:50;94730.88;;;1.78;89.81
21826;BME280;11075;47.944;11.776;2023-11-19T09:20:18;94744.72;;;1.75;88.93
21826;BME280;11075;47.944;11.776;2023-11-19T09:22:44;94750.06;;;1.70;89.68
21826;BME280;11075;47.944;11.776;2023-11-19T09:25:11;94751.75;;;1.56;90.99
21826;BME280;11075;47.944;11.776;2023-11-19T09:27:44;94756.66;;;1.39;92.28
21826;BME280;11075;47.944;11.776;2023-11-19T09:30:11;94762.47;;;1.80;88.86
21826;BME280;11075;47.944;11.776;2023-11-19T09:32:38;94763.75;;;2.11;86.74
21826;BME280;11075;47.944;11.776;2023-11-19T09:35:05;94750.47;;;2.11;87.61
21826;BME280;11075;47.944;11.776;2023-11-19T09:37:33;94752.00;;;2.18;87.60
21826;BME280;11075;47.944;11.776;2023-11-19T09:40:00;94754.31;;;2.00;88.19
21826;BME280;11075;47.944;11.776;2023-11-19T09:42:27;94764.63;;;2.31;85.25
21826;BME280;11075;47.944;11.776;2023-11-19T09:44:56;94761.16;;;2.06;89.03
21826;BME280;11075;47.944;11.776;2023-11-19T09:47:25;94762.00;;;2.26;88.38
21826;BME280;11075;47.944;11.776;2023-11-19T09:49:54;94776.81;;;1.79;92.10
21826;BME280;11075;47.944;11.776;2023-11-19T09:52:24;94764.88;;;2.05;89.71
21826;BME280;11075;47.944;11.776;2023-11-19T09:54:51;94763.81;;;2.30;87.63
21826;BME280;11075;47.944;11.776;2023-11-19T09:57:18;94763.84;;;2.01;91.03
21826;BME280;11075;47.944;11.776;2023-11-19T09:59:46;94775.84;;;1.70;91.09
21826;BME280;11075;47.944;11.776;2023-11-19T10:02:14;94760.56;;;1.86;90.44
21826;BME280;11075;47.944;11.776;2023-11-19T10:04:42;94743.56;;;2.10;88.66
21826;BME280;11075;47.944;11.776;2023-11-19T10:07:10;94730.00;;;2.36;85.55
21826;BME280;11075;47.944;11.776;2023-11-19T10:09:37;94743.06;;;2.08;89.73
21826;BME280;11075;47.944;11.776;2023-11-19T10:12:04;94744.69;;;2.04;87.67
21826;BME280;11075;47.944;11.776;2023-11-19T10:14:31;94738.97;;;2.64;85.43
21826;BME280;11075;47.944;11.776;2023-11-19T10:17:01;94741.53;;;2.74;83.98
21826;BME280;11075;47.944;11.776;2023-11-19T10:19:31;94737.34;;;2.68;83.26
21826;BME280;11075;47.944;11.776;2023-11-19T10:22:03;94733.09;;;2.43;84.46
21826;BME280;11075;47.944;11.776;2023-11-19T10:24:34;94739.16;;;2.72;84.71
21826;BME280;11075;47.944;11.776;2023-11-19T10:27:08;94742.41;;;2.64;83.42
21826;BME280;11075;47.944;11.776;2023-11-19T10:29:38;94731.47;;;2.90;81.70
21826;BME280;11075;47.944;11.776;2023-11-19T10:32:05;94735.47;;;2.44;85.88
21826;BME280;11075;47.944;11.776;2023-11-19T10:34:52;94735.63;;;2.53;84.99
21826;BME280;11075;47.944;11.776;2023-11-19T10:37:29;94727.88;;;2.99;81.30
21826;BME280;11075;47.944;11.776;2023-11-19T10:40:02;94720.03;;;2.70;81.79
21826;BME280;11075;47.944;11.776;2023-11-19T10:42:31;94718.16;;;2.71;83.92
21826;BME280;11075;47.944;11.776;2023-11-19T10:44:58;94716.94;;;3.20;80.09
21826;BME280;11075;47.944;11.776;2023-11-19T10:47:25;94718.88;;;2.53;85.22
21826;BME280;11075;47.944;11.776;2023-11-19T10:49:55;94730.47;;;2.86;84.08
21826;BME280;11075;47.944;11.776;2023-11-19T10:52:23;94716.72;;;2.78;82.73
21826;BME280;11075;47.944;11.776;2023-11-19T10:54:51;94705.06;;;3.12;80.26
21826;BME280;11075;47.944;11.776;2023-11-19T10:57:21;94705.56;;;3.14;81.40
21826;BME280;11075;47.944;11.776;2023-11-19T10:59:55;94702.69;;;2.73;80.51
21826;BME280;11075;47.944;11.776;2023-11-19T11:02:29;94699.16;;;3.66;76.12
21826;BME280;11075;47.944;11.776;2023-11-19T11:04:59;94699.00;;;3.90;75.60
21826;BME280;11075;47.944;11.776;2023-11-19T11:07:27;94690.34;;;3.33;77.68
21826;BME280;11075;47.944;11.776;2023-11-19T11:10:07;94679.47;;;2.97;79.47
21826;BME280;11075;47.944;11.776;2023-11-19T11:12:36;94687.84;;;4.02;74.77
21826;BME280;11075;47.944;11.776;2023-11-19T11:15:05;94684.44;;;3.36;76.42
21826;BME280;11075;47.944;11.776;2023-11-19T11:17:34;94677.59;;;3.63;75.95
21826;BME280;11075;47.944;11.776;2023-11-19T11:20:01;94689.81;;;3.50;80.04
21826;BME280;11075;47.944;11.776;2023-11-19T11:22:39;94680.53;;;3.94;75.12
21826;BME280;11075;47.944;11.776;2023-11-19T11:37:01;94675.38;;;4.80;66.14
21826;BME280;11075;47.944;11.776;2023-11-19T11:39:30;94684.00;;;4.49;67.32
21826;BME280;11075;47.944;11.776;2023-11-19T11:45:11;94693.84;;;3.66;71.17
21826;BME280;11075;47.944;11.776;2023-11-19T11:50:17;94678.81;;;3.38;74.08
21826;BME280;11075;47.944;11.776;2023-11-19T11:55:52;94669.25;;;3.69;71.35
21826;BME280;11075;47.944;11.776;2023-11-19T11:58:26;94664.06;;;3.92;72.70
21826;BME280;11075;47.944;11.776;2023-11-19T12:00:53;94671.56;;;4.03;69.30
21826;BME280;11075;47.944;11.776;2023-11-19T12:03:21;94665.56;;;3.19;75.07
21826;BME280;11075;47.944;11.776;2023-11-19T12:05:48;94653.97;;;3.75;71.55
21826;BME280;11075;47.944;11.776;2023-11-19T12:08:19;94648.97;;;3.55;74.54
21826;BME280;11075;47.944;11.776;2023-11-19T12:10:55;94657.88;;;3.64;72.79
21826;BME280;11075;47.944;11.776;2023-11-19T12:13:46;94653.59;;;2.41;78.24
21826;BME280;11075;47.944;11.776;2023-11-19T12:16:14;94656.44;;;3.06;74.65
21826;BME280;11075;47.944;11.776;2023-11-19T12:18:40;94656.78;;;3.00;73.61
21826;BME280;11075;47.944;11.776;2023-11-19T12:21:08;94666.00;;;3.72;71.10
21826;BME280;11075;47.944;11.776;2023-11-19T12:23:44;94661.88;;;4.07;68.57
21826;BME280;11075;47.944;11.776;2023-11-19T12:26:32;94661.34;;;2.81;75.25
21826;BME280;11075;47.944;11.776;2023-11-19T12:29:00;94657.31;;;3.34;72.68
21826;BME280;11075;47.944;11.776;2023-11-19T12:31:30;94649.34;;;3.48;72.04
21826;BME280;11075;47.944;11.776;2023-11-19T12:33:57;94646.28;;;3.41;73.22
21826;BME280;11075;47.944;11.776;2023-11-19T12:36:24;94650.16;;;3.16;73.93
21826;BME280;11075;47.944;11.776;2023-11-19T12:38:51;94642.13;;;2.84;73.66
21826;BME280;11075;47.944;11.776;2023-11-19T12:41:18;94637.22;;;3.42;72.31
21826;BME280;11075;47.944;11.776;2023-11-19T12:43:49;94638.97;;;3.79;69.34
21826;BME280;11075;47.944;11.776;2023-11-19T12:46:22;94638.25;;;2.95;74.30
21826;BME280;11075;47.944;11.776;2023-11-19T12:48:51;94640.44;;;3.71;70.68
21826;BME280;11075;47.944;11.776;2023-11-19T12:51:18;94649.81;;;3.04;72.72
21826;BME280;11075;47.944;11.776;2023-11-19T12:53:48;94639.00;;;3.14;73.38
21826;BME280;11075;47.944;11.776;2023-11-19T12:56:21;94645.75;;;3.25;72.19
21826;BME280;11075;47.944;11.776;2023-11-19T12:58:49;94647.69;;;3.52;72.03
21826;BME280;11075;47.944;11.776;2023-11-19T13:01:18;94638.66;;;2.45;76.90
21826;BME280;11075;47.944;11.776;2023-11-19T13:03:47;94633.94;;;3.31;71.23
21826;BME280;11075;47.944;11.776;2023-11-19T13:06:16;94623.69;;;3.06;74.35
21826;BME280;11075;47.944;11.776;2023-11-19T13:08:47;94618.03;;;2.94;73.84
21826;BME280;11075;47.944;11.776;2023-11-19T13:11:33;94613.31;;;3.37;70.84
21826;BME280;11075;47.944;11.776;2023-11-19T13:14:02;94609.63;;;3.19;70.84
21826;BME280;11075;47.944;11.776;2023-11-19T13:16:36;94603.09;;;3.11;72.59
21826;BME280;11075;47.944;11.776;2023-11-19T13:19:04;94597.03;;;3.38;71.22
21826;BME280;11075;47.944;11.776;2023-11-19T13:21:31;94604.97;;;3.11;70.21